createdAt,value
2023-02-22T00:01:42.985Z,95.41
2023-02-22T00:04:11.047Z,96.03
2023-02-22T00:06:37.829Z,96.04
2023-02-22T00:09:05.007Z,95.93
2023-02-22T00:11:31.815Z,96.15
2023-02-22T00:13:59.036Z,96.61
2023-02-22T00:16:26.773Z,96.71
2023-02-22T00:18:54.566Z,97.17
2023-02-22T00:21:21.841Z,98.00
2023-02-22T00:23:49.652Z,98.46
2023-02-22T00:26:21.506Z,98.33
2023-02-22T00:28:50.929Z,98.46
2023-02-22T00:31:19.536Z,98.94
2023-02-22T00:33:46.767Z,99.09
2023-02-22T00:36:14.310Z,99.63
2023-02-22T00:38:42.043Z,100.00
2023-02-22T00:41:09.986Z,100.00
2023-02-22T00:43:37.045Z,100.00
2023-02-22T00:46:04.068Z,99.97
2023-02-22T00:48:31.155Z,100.00
2023-02-22T00:50:57.993Z,100.00
2023-02-22T00:53:26.300Z,100.00
2023-02-22T00:55:54.145Z,100.00
2023-02-22T00:58:21.619Z,100.00
2023-02-22T01:00:49.850Z,100.00
2023-02-22T01:03:20.024Z,100.00
2023-02-22T01:05:47.536Z,100.00
2023-02-22T01:08:16.327Z,100.00
2023-02-22T01:10:43.858Z,100.00
2023-02-22T01:13:12.825Z,100.00
2023-02-22T01:15:42.785Z,100.00
2023-02-22T01:18:12.593Z,100.00
2023-02-22T01:20:39.559Z,99.57
2023-02-22T01:23:08.067Z,99.40
2023-02-22T01:25:35.815Z,99.91
2023-02-22T01:28:04.938Z,99.51
2023-02-22T01:30:34.558Z,99.29
2023-02-22T01:33:04.013Z,98.87
2023-02-22T01:35:34.361Z,99.11
2023-02-22T01:38:01.669Z,98.97
2023-02-22T01:40:34.217Z,98.80
2023-02-22T01:43:14.642Z,98.59
2023-02-22T01:45:50.051Z,99.17
2023-02-22T01:48:24.897Z,99.64
2023-02-22T01:50:57.237Z,99.72
2023-02-22T01:53:30.440Z,100.00
2023-02-22T01:55:58.510Z,100.00
2023-02-22T01:58:28.633Z,100.00
2023-02-22T02:00:55.839Z,100.00
2023-02-22T02:03:27.739Z,100.00
2023-02-22T02:05:59.006Z,100.00
2023-02-22T02:08:36.836Z,100.00
2023-02-22T02:11:08.689Z,100.00
2023-02-22T02:13:36.766Z,99.94
2023-02-22T02:16:03.998Z,99.87
2023-02-22T02:18:32.598Z,99.20
2023-02-22T02:21:14.745Z,99.72
2023-02-22T02:23:55.083Z,99.79
2023-02-22T02:26:40.601Z,99.93
2023-02-22T02:29:40.876Z,100.00
2023-02-22T02:32:30.041Z,100.00
2023-02-22T02:35:23.162Z,100.00
2023-02-22T02:38:12.149Z,99.78
2023-02-22T02:40:47.648Z,100.00
2023-02-22T02:43:51.928Z,100.00
2023-02-22T02:46:32.387Z,100.00
2023-02-22T02:49:04.559Z,100.00
2023-02-22T02:51:36.666Z,100.00
2023-02-22T02:54:05.839Z,100.00
2023-02-22T02:56:33.444Z,100.00
2023-02-22T02:59:00.253Z,100.00
2023-02-22T03:01:56.355Z,100.00
2023-02-22T03:04:34.397Z,100.00
2023-02-22T03:07:20.268Z,100.00
2023-02-22T03:09:54.787Z,100.00
2023-02-22T03:12:53.655Z,100.00
2023-02-22T03:15:40.065Z,100.00
2023-02-22T03:18:22.906Z,100.00
2023-02-22T03:21:00.317Z,100.00
2023-02-22T03:23:37.527Z,100.00
2023-02-22T03:26:19.441Z,100.00
2023-02-22T03:28:49.088Z,100.00
2023-02-22T03:31:29.745Z,100.00
2023-02-22T03:34:02.732Z,100.00
2023-02-22T03:36:33.915Z,100.00
2023-02-22T03:39:04.342Z,100.00
2023-02-22T03:41:33.336Z,100.00
2023-02-22T03:44:03.145Z,100.00
2023-02-22T03:46:31.591Z,100.00
2023-02-22T03:49:35.000Z,100.00
2023-02-22T03:52:03.896Z,100.00
2023-02-22T03:54:32.177Z,100.00
2023-02-22T03:57:15.123Z,100.00
2023-02-22T03:59:43.006Z,100.00
2023-02-22T04:02:09.773Z,100.00
2023-02-22T04:04:36.890Z,100.00
2023-02-22T04:07:03.747Z,100.00
2023-02-22T04:09:30.854Z,100.00
2023-02-22T04:11:57.646Z,100.00
2023-02-22T04:14:24.709Z,100.00
2023-02-22T04:16:51.543Z,100.00
2023-02-22T04:19:18.642Z,100.00
2023-02-22T04:21:45.432Z,100.00
2023-02-22T04:24:12.556Z,100.00
2023-02-22T04:26:39.325Z,100.00
2023-02-22T04:29:06.545Z,100.00
2023-02-22T04:31:36.224Z,100.00
2023-02-22T04:34:03.601Z,100.00
2023-02-22T04:36:31.889Z,100.00
2023-02-22T04:38:59.777Z,100.00
2023-02-22T04:41:26.744Z,100.00
2023-02-22T04:43:54.018Z,100.00
2023-02-22T04:46:20.933Z,100.00
2023-02-22T04:48:48.078Z,100.00
2023-02-22T04:51:15.710Z,100.00
2023-02-22T04:53:42.983Z,100.00
2023-02-22T04:56:09.799Z,100.00
2023-02-22T04:58:36.883Z,100.00
2023-02-22T05:01:04.012Z,100.00
2023-02-22T05:03:31.807Z,100.00
2023-02-22T05:05:58.810Z,100.00
2023-02-22T05:08:25.859Z,100.00
2023-02-22T05:10:52.645Z,100.00
2023-02-22T05:13:19.888Z,100.00
2023-02-22T05:15:47.840Z,100.00
2023-02-22T05:18:16.353Z,100.00
2023-02-22T05:20:43.166Z,100.00
2023-02-22T05:23:10.384Z,100.00
2023-02-22T05:25:37.200Z,100.00
2023-02-22T05:28:12.681Z,100.00
2023-02-22T05:30:40.177Z,100.00
2023-02-22T05:33:08.323Z,100.00
2023-02-22T05:35:35.137Z,100.00
2023-02-22T05:38:03.732Z,100.00
2023-02-22T05:40:31.639Z,100.00
2023-02-22T05:42:59.452Z,100.00
2023-02-22T05:45:27.604Z,100.00
2023-02-22T05:47:55.404Z,100.00
2023-02-22T05:50:22.446Z,100.00
2023-02-22T05:52:49.555Z,100.00
2023-02-22T05:55:18.836Z,100.00
2023-02-22T05:57:48.333Z,100.00
2023-02-22T06:00:19.956Z,100.00
2023-02-22T06:02:47.021Z,100.00
2023-02-22T06:05:14.028Z,100.00
2023-02-22T06:07:41.085Z,100.00
2023-02-22T06:10:08.472Z,100.00
2023-02-22T06:12:35.542Z,100.00
2023-02-22T06:15:02.693Z,100.00
2023-02-22T06:17:30.483Z,100.00
2023-02-22T06:19:57.575Z,100.00
2023-02-22T06:22:24.594Z,100.00
2023-02-22T06:24:52.214Z,100.00
2023-02-22T06:27:20.488Z,100.00
2023-02-22T06:29:48.056Z,100.00
2023-02-22T06:32:15.119Z,100.00
2023-02-22T06:34:42.004Z,100.00
2023-02-22T06:37:09.080Z,100.00
2023-02-22T06:39:35.814Z,100.00
2023-02-22T06:42:02.958Z,100.00
2023-02-22T06:44:29.819Z,100.00
2023-02-22T06:46:56.956Z,100.00
2023-02-22T06:49:23.841Z,100.00
2023-02-22T06:51:50.999Z,100.00
2023-02-22T06:54:17.820Z,100.00
2023-02-22T06:56:45.305Z,100.00
2023-02-22T06:59:12.102Z,100.00
2023-02-22T07:01:42.926Z,100.00
2023-02-22T07:04:10.304Z,100.00
2023-02-22T07:06:37.576Z,100.00
2023-02-22T07:09:04.394Z,100.00
2023-02-22T07:11:31.663Z,100.00
2023-02-22T07:13:58.446Z,100.00
2023-02-22T07:16:25.551Z,99.89
2023-02-22T07:18:52.380Z,99.75
2023-02-22T07:21:19.594Z,99.42
2023-02-22T07:23:57.045Z,99.84
2023-02-22T07:26:24.685Z,99.99
2023-02-22T07:28:51.646Z,98.86
2023-02-22T07:31:18.954Z,98.82
2023-02-22T07:33:49.445Z,98.18
2023-02-22T07:36:18.104Z,97.54
2023-02-22T07:38:45.675Z,96.52
2023-02-22T07:41:13.185Z,95.89
2023-02-22T07:43:39.995Z,95.18
2023-02-22T07:46:07.113Z,94.54
2023-02-22T07:48:33.949Z,93.29
2023-02-22T07:51:01.032Z,93.03
2023-02-22T07:53:30.604Z,90.76
2023-02-22T07:55:58.613Z,90.34
2023-02-22T07:58:27.385Z,90.92
2023-02-22T08:00:54.868Z,90.27
2023-02-22T08:03:24.169Z,90.25
2023-02-22T08:05:56.939Z,88.90
2023-02-22T08:08:24.324Z,87.85
2023-02-22T08:10:52.162Z,86.96
2023-02-22T08:13:20.886Z,86.17
2023-02-22T08:15:50.456Z,86.57
2023-02-22T08:18:19.697Z,85.09
2023-02-22T08:20:49.455Z,84.38
2023-02-22T08:23:17.250Z,84.63
2023-02-22T08:25:44.589Z,82.52
2023-02-22T08:28:15.138Z,82.09
2023-02-22T08:30:43.764Z,81.42
2023-02-22T08:33:16.811Z,82.69
2023-02-22T08:35:44.042Z,80.06
2023-02-22T08:38:19.857Z,81.19
2023-02-22T08:40:50.983Z,79.97
2023-02-22T08:43:19.601Z,78.42
2023-02-22T08:45:47.587Z,78.38
2023-02-22T08:48:16.007Z,77.83
2023-02-22T08:50:44.471Z,79.64
2023-02-22T08:53:13.632Z,80.27
2023-02-22T08:55:42.000Z,78.26
2023-02-22T08:58:10.044Z,77.53
2023-02-22T09:00:39.184Z,78.90
2023-02-22T09:03:09.487Z,78.43
2023-02-22T09:05:36.760Z,77.75
2023-02-22T09:08:04.526Z,77.60
2023-02-22T09:10:33.731Z,78.28
2023-02-22T09:13:01.456Z,78.27
2023-02-22T09:15:29.891Z,78.29
2023-02-22T09:17:57.138Z,79.35
2023-02-22T09:20:25.419Z,77.67
2023-02-22T09:22:53.473Z,77.25
2023-02-22T09:25:21.769Z,78.80
2023-02-22T09:27:51.336Z,78.31
2023-02-22T09:30:34.187Z,78.88
2023-02-22T09:33:04.059Z,79.12
2023-02-22T09:35:31.426Z,79.27
2023-02-22T09:38:00.282Z,79.80
2023-02-22T09:40:30.546Z,78.44
2023-02-22T09:43:16.394Z,77.21
2023-02-22T09:46:13.623Z,78.11
2023-02-22T09:48:52.694Z,78.77
2023-02-22T09:51:21.782Z,77.60
2023-02-22T09:53:52.329Z,75.91
2023-02-22T09:56:20.950Z,74.89
2023-02-22T09:58:52.697Z,74.84
2023-02-22T10:01:35.007Z,75.26
2023-02-22T10:04:36.634Z,74.08
2023-02-22T10:07:30.816Z,73.43
2023-02-22T10:09:58.705Z,72.41
2023-02-22T10:12:33.773Z,72.45
2023-02-22T10:15:18.737Z,72.10
2023-02-22T10:18:16.609Z,74.06
2023-02-22T10:20:57.785Z,71.62
2023-02-22T10:23:42.843Z,69.60
2023-02-22T10:26:17.735Z,70.08
2023-02-22T10:28:47.738Z,68.73
2023-02-22T10:31:42.358Z,66.40
2023-02-22T10:34:33.349Z,65.23
2023-02-22T10:37:23.955Z,61.94
2023-02-22T10:39:56.885Z,61.16
2023-02-22T10:42:27.228Z,59.73
2023-02-22T10:44:54.441Z,60.94
2023-02-22T10:47:22.168Z,66.25
2023-02-22T10:49:53.637Z,65.90
2023-02-22T10:52:40.813Z,68.28
2023-02-22T10:55:15.545Z,69.08
2023-02-22T10:57:46.580Z,70.28
2023-02-22T11:00:20.910Z,70.74
2023-02-22T11:02:57.233Z,70.94
2023-02-22T11:05:32.409Z,72.54
2023-02-22T11:08:20.674Z,74.01
2023-02-22T11:10:54.409Z,74.60
2023-02-22T11:13:26.521Z,74.88
2023-02-22T11:16:00.779Z,75.30
2023-02-22T11:18:31.942Z,74.75
2023-02-22T11:21:12.458Z,75.11
2023-02-22T11:23:44.295Z,75.41
2023-02-22T11:26:16.833Z,75.80
2023-02-22T11:28:51.016Z,75.15
2023-02-22T11:31:22.460Z,74.52
2023-02-22T11:34:02.113Z,75.29
2023-02-22T11:36:30.945Z,75.52
2023-02-22T11:39:00.750Z,74.84
2023-02-22T11:41:30.642Z,74.72
2023-02-22T11:44:21.687Z,74.48
2023-02-22T11:46:49.547Z,75.64
2023-02-22T11:49:17.689Z,77.49
2023-02-22T11:51:53.752Z,77.67
2023-02-22T11:54:33.528Z,77.68
2023-02-22T11:57:42.405Z,76.46
2023-02-22T12:00:24.639Z,76.98
2023-02-22T12:03:28.693Z,75.59
2023-02-22T12:06:10.587Z,77.58
2023-02-22T12:08:46.607Z,78.21
2023-02-22T12:11:41.080Z,77.23
2023-02-22T12:14:14.156Z,77.08
2023-02-22T12:17:30.919Z,77.16
2023-02-22T12:20:10.295Z,75.94
2023-02-22T12:22:43.471Z,77.15
2023-02-22T12:25:21.572Z,77.56
2023-02-22T12:27:57.174Z,77.31
2023-02-22T12:30:28.917Z,77.69
2023-02-22T12:33:00.236Z,76.65
2023-02-22T12:35:34.828Z,75.99
2023-02-22T12:38:13.584Z,76.77
2023-02-22T12:40:58.897Z,78.52
2023-02-22T12:44:01.699Z,78.81
2023-02-22T12:46:44.158Z,79.19
2023-02-22T12:49:41.548Z,79.54
2023-02-22T12:52:42.151Z,78.95
2023-02-22T12:55:21.314Z,79.18
2023-02-22T12:57:59.541Z,79.11
2023-02-22T13:00:34.624Z,78.72
2023-02-22T13:03:13.381Z,78.88
2023-02-22T13:05:52.279Z,79.47
2023-02-22T13:08:25.443Z,78.27
2023-02-22T13:10:58.263Z,78.94
2023-02-22T13:13:33.713Z,78.23
2023-02-22T13:16:27.448Z,79.31
2023-02-22T13:18:58.404Z,79.77
2023-02-22T13:21:49.597Z,80.69
2023-02-22T13:24:23.713Z,79.87
2023-02-22T13:27:23.129Z,79.54
2023-02-22T13:29:57.456Z,80.01
2023-02-22T13:33:07.854Z,79.17
2023-02-22T13:35:48.769Z,78.73
2023-02-22T13:38:26.188Z,78.44
2023-02-22T13:41:15.572Z,77.73
2023-02-22T13:43:52.223Z,80.34
2023-02-22T13:46:44.156Z,81.22
2023-02-22T13:49:29.501Z,80.48
2023-02-22T13:52:13.181Z,80.56
2023-02-22T13:54:47.039Z,80.24
2023-02-22T13:57:38.023Z,79.53
2023-02-22T14:00:18.097Z,79.15
2023-02-22T14:03:08.989Z,79.97
2023-02-22T14:05:49.742Z,80.44
2023-02-22T14:08:19.961Z,80.49
2023-02-22T14:10:51.170Z,79.45
2023-02-22T14:13:23.513Z,79.29
2023-02-22T14:16:02.527Z,78.82
2023-02-22T14:18:35.153Z,78.96
2023-02-22T14:21:07.805Z,80.00
2023-02-22T14:23:42.181Z,80.03
2023-02-22T14:26:14.052Z,80.12
2023-02-22T14:28:52.515Z,79.39
2023-02-22T14:31:36.077Z,80.80
2023-02-22T14:34:06.405Z,80.93
2023-02-22T14:36:51.908Z,82.27
2023-02-22T14:39:51.503Z,82.53
2023-02-22T14:42:21.382Z,81.56
2023-02-22T14:44:48.909Z,82.35
2023-02-22T14:47:29.588Z,82.68
2023-02-22T14:50:13.080Z,83.07
2023-02-22T14:52:43.336Z,83.54
2023-02-22T14:55:20.056Z,83.94
2023-02-22T14:57:59.303Z,83.07
2023-02-22T15:00:38.279Z,82.95
2023-02-22T15:03:05.113Z,82.88
2023-02-22T15:05:38.553Z,83.19
2023-02-22T15:08:08.358Z,83.30
2023-02-22T15:10:45.829Z,82.69
2023-02-22T15:13:27.159Z,82.62
2023-02-22T15:16:01.803Z,82.89
2023-02-22T15:18:41.735Z,83.25
2023-02-22T15:21:17.927Z,83.51
2023-02-22T15:23:54.875Z,84.73
2023-02-22T15:26:37.279Z,84.40
2023-02-22T15:29:15.295Z,84.89
2023-02-22T15:31:48.329Z,85.41
2023-02-22T15:34:15.467Z,85.43
2023-02-22T15:36:44.888Z,85.20
2023-02-22T15:39:43.803Z,85.68
2023-02-22T15:42:20.885Z,85.13
2023-02-22T15:44:49.910Z,84.36
2023-02-22T15:47:22.681Z,84.16
2023-02-22T15:50:17.593Z,83.41
2023-02-22T15:53:21.665Z,83.11
2023-02-22T15:55:55.057Z,84.34
2023-02-22T15:58:23.896Z,82.92
2023-02-22T16:01:01.184Z,82.96
2023-02-22T16:03:45.001Z,83.58
2023-02-22T16:06:35.597Z,83.10
2023-02-22T16:09:14.772Z,82.60
2023-02-22T16:11:46.657Z,83.37
2023-02-22T16:14:42.925Z,84.33
2023-02-22T16:17:24.803Z,84.67
2023-02-22T16:19:53.025Z,84.62
2023-02-22T16:22:35.446Z,84.93
2023-02-22T16:25:21.618Z,86.16
2023-02-22T16:27:59.827Z,87.00
2023-02-22T16:30:32.423Z,89.03
2023-02-22T16:33:00.896Z,89.40
2023-02-22T16:35:29.400Z,89.64
2023-02-22T16:38:00.481Z,91.27
2023-02-22T16:40:34.643Z,92.06
2023-02-22T16:43:04.810Z,91.88
2023-02-22T16:45:32.397Z,92.43
2023-02-22T16:48:00.292Z,92.79
2023-02-22T16:50:27.450Z,92.75
2023-02-22T16:52:58.580Z,93.30
2023-02-22T16:55:26.831Z,93.04
2023-02-22T16:57:56.978Z,93.30
2023-02-22T17:00:34.061Z,90.26
2023-02-22T17:03:05.611Z,88.86
2023-02-22T17:05:37.688Z,87.67
2023-02-22T17:08:04.920Z,87.66
2023-02-22T17:10:32.849Z,87.88
2023-02-22T17:13:12.735Z,87.84
2023-02-22T17:15:48.204Z,89.13
2023-02-22T17:18:17.079Z,87.96
2023-02-22T17:20:45.026Z,87.97
2023-02-22T17:23:12.534Z,88.16
2023-02-22T17:25:44.392Z,89.53
2023-02-22T17:28:12.788Z,92.56
2023-02-22T17:30:41.402Z,92.99
2023-02-22T17:33:10.008Z,93.60
2023-02-22T17:35:39.359Z,95.14
2023-02-22T17:38:06.765Z,97.00
2023-02-22T17:40:36.416Z,97.38
2023-02-22T17:43:04.039Z,97.37
2023-02-22T17:45:31.353Z,95.70
2023-02-22T17:48:01.004Z,90.28
2023-02-22T17:50:28.173Z,87.63
2023-02-22T17:52:54.967Z,87.17
2023-02-22T17:55:22.246Z,86.29
2023-02-22T17:57:58.219Z,86.70
2023-02-22T18:00:34.374Z,86.99
2023-02-22T18:03:04.181Z,86.51
2023-02-22T18:05:35.156Z,86.09
2023-02-22T18:08:01.952Z,85.57
2023-02-22T18:10:28.995Z,85.62
2023-02-22T18:12:56.807Z,85.14
2023-02-22T18:15:28.243Z,84.85
2023-02-22T18:17:56.064Z,84.11
2023-02-22T18:20:38.239Z,82.74
2023-02-22T18:23:10.083Z,82.35
2023-02-22T18:25:38.184Z,82.47
2023-02-22T18:28:06.384Z,82.59
2023-02-22T18:30:35.930Z,83.56
2023-02-22T18:33:04.021Z,82.18
2023-02-22T18:35:31.617Z,82.63
2023-02-22T18:37:58.465Z,82.86
2023-02-22T18:40:25.509Z,83.47
2023-02-22T18:42:52.270Z,83.51
2023-02-22T18:45:20.345Z,83.59
2023-02-22T18:47:47.150Z,83.79
2023-02-22T18:50:17.242Z,84.08
2023-02-22T18:52:45.918Z,84.39
2023-02-22T18:55:18.697Z,84.20
2023-02-22T18:57:47.012Z,85.85
2023-02-22T19:00:23.199Z,84.47
2023-02-22T19:02:50.599Z,84.05
2023-02-22T19:05:17.491Z,83.91
2023-02-22T19:07:45.200Z,83.79
2023-02-22T19:10:12.189Z,84.52
2023-02-22T19:12:39.242Z,84.27
2023-02-22T19:15:06.144Z,84.06
2023-02-22T19:17:36.431Z,84.69
2023-02-22T19:20:09.982Z,84.92
2023-02-22T19:25:08.839Z,84.16
2023-02-22T19:27:36.038Z,84.09
2023-02-22T19:30:04.650Z,83.32
2023-02-22T19:32:33.578Z,83.12
2023-02-22T19:35:06.799Z,82.93
2023-02-22T19:37:35.641Z,83.62
2023-02-22T19:40:06.878Z,82.32
2023-02-22T19:42:33.970Z,82.33
2023-02-22T19:45:01.016Z,81.91
2023-02-22T19:47:28.176Z,82.01
2023-02-22T19:49:57.198Z,81.23
2023-02-22T19:52:28.265Z,82.58
2023-02-22T19:54:55.058Z,82.58
2023-02-22T19:57:24.248Z,82.61
2023-02-22T19:59:51.300Z,82.71
2023-02-22T20:02:18.422Z,81.96
2023-02-22T20:04:45.525Z,80.73
2023-02-22T20:07:12.564Z,80.15
2023-02-22T20:09:40.321Z,80.12
2023-02-22T20:12:08.133Z,79.78
2023-02-22T20:14:35.427Z,79.63
2023-02-22T20:17:04.417Z,79.58
2023-02-22T20:19:31.226Z,79.61
2023-02-22T20:22:00.254Z,78.75
2023-02-22T20:24:27.776Z,78.70
2023-02-22T20:26:57.176Z,79.51
2023-02-22T20:29:29.680Z,78.64
2023-02-22T20:31:58.128Z,78.53
2023-02-22T20:34:26.506Z,80.03
2023-02-22T20:36:53.992Z,79.00
2023-02-22T20:39:20.782Z,79.36
2023-02-22T20:41:48.042Z,78.70
2023-02-22T20:44:17.505Z,77.86
2023-02-22T20:46:45.871Z,78.19
2023-02-22T20:49:18.940Z,78.32
2023-02-22T20:51:48.037Z,79.32
2023-02-22T20:54:16.267Z,77.87
2023-02-22T20:56:45.145Z,78.58
2023-02-22T20:59:14.904Z,78.16
2023-02-22T21:01:42.317Z,78.81
2023-02-22T21:04:11.124Z,80.24
2023-02-22T21:06:39.706Z,78.45
2023-02-22T21:09:08.859Z,79.72
2023-02-22T21:11:36.001Z,79.22
2023-02-22T21:14:03.444Z,78.81
2023-02-22T21:16:35.292Z,79.37
2023-02-22T21:19:04.956Z,78.77
2023-02-22T21:21:32.091Z,78.47
2023-02-22T21:24:02.731Z,78.64
2023-02-22T21:26:33.501Z,79.18
2023-02-22T21:29:04.681Z,78.56
2023-02-22T21:31:34.022Z,80.06
2023-02-22T21:34:01.354Z,79.38
2023-02-22T21:36:28.879Z,79.46
2023-02-22T21:38:57.981Z,79.72
2023-02-22T21:41:28.933Z,78.79
2023-02-22T21:43:58.245Z,78.50
2023-02-22T21:46:29.528Z,78.30
2023-02-22T21:48:58.713Z,79.39
2023-02-22T21:51:31.442Z,78.95
2023-02-22T21:54:03.959Z,78.32
2023-02-22T21:56:35.354Z,77.81
2023-02-22T21:59:06.208Z,77.70
2023-02-22T22:01:36.645Z,77.66
2023-02-22T22:04:04.930Z,77.74
2023-02-22T22:06:34.541Z,78.17
2023-02-22T22:09:04.118Z,79.63
2023-02-22T22:11:31.204Z,80.26
2023-02-22T22:13:59.660Z,80.81
2023-02-22T22:16:29.784Z,81.40
2023-02-22T22:18:57.174Z,81.61
2023-02-22T22:21:24.657Z,80.74
2023-02-22T22:23:55.996Z,80.36
2023-02-22T22:26:25.180Z,80.53
2023-02-22T22:28:56.019Z,78.95
2023-02-22T22:31:26.105Z,80.59
2023-02-22T22:33:54.374Z,80.30
2023-02-22T22:36:22.832Z,81.85
2023-02-22T22:38:52.575Z,82.37
2023-02-22T22:41:21.928Z,82.48
2023-02-22T22:43:48.826Z,83.09
2023-02-22T22:46:17.715Z,83.90
2023-02-22T22:48:47.307Z,83.97
2023-02-22T22:51:18.436Z,84.44
2023-02-22T22:53:47.488Z,84.47
2023-02-22T22:56:29.203Z,84.33
2023-02-22T22:58:58.044Z,84.40
2023-02-22T23:01:34.235Z,84.93
2023-02-22T23:04:04.477Z,84.51
2023-02-22T23:06:34.507Z,84.70
2023-02-22T23:09:11.166Z,85.56
2023-02-22T23:11:44.740Z,85.55
2023-02-22T23:14:22.070Z,85.36
2023-02-22T23:16:51.024Z,85.35
2023-02-22T23:19:19.412Z,86.02
2023-02-22T23:21:48.736Z,85.94
2023-02-22T23:24:19.901Z,85.68
2023-02-22T23:26:50.640Z,86.68
2023-02-22T23:29:20.298Z,86.31
2023-02-22T23:31:48.767Z,86.08
2023-02-22T23:34:24.089Z,86.50
2023-02-22T23:36:54.336Z,86.16
2023-02-22T23:39:22.512Z,85.84
2023-02-22T23:41:51.111Z,87.59
2023-02-22T23:44:17.984Z,86.73
2023-02-22T23:46:48.230Z,87.03
2023-02-22T23:49:20.168Z,86.80
2023-02-22T23:51:47.646Z,88.31
2023-02-22T23:54:19.271Z,87.64
2023-02-22T23:56:56.182Z,87.90
2023-02-22T23:59:25.320Z,86.21
